sensor_id;sensor_type;location;lat;lon;timestamp;temperature;humidity
57058;DHT22;55017;52.848;6.748;2022-10-16T00:01:15;12.90;99.90
57058;DHT22;55017;52.848;6.748;2022-10-16T00:03:42;12.90;99.90
57058;DHT22;55017;52.848;6.748;2022-10-16T00:06:09;12.80;99.90
57058;DHT22;55017;52.848;6.748;2022-10-16T00:08:35;13.00;99.90
57058;DHT22;55017;52.848;6.748;2022-10-16T00:11:04;12.90;99.90
57058;DHT22;55017;52.848;6.748;2022-10-16T00:13:31;13.00;99.90
57058;DHT22;55017;52.848;6.748;2022-10-16T00:15:58;13.00;99.90
57058;DHT22;55017;52.848;6.748;2022-10-16T00:18:24;13.00;99.90
57058;DHT22;55017;52.848;6.748;2022-10-16T00:20:51;13.00;99.90
57058;DHT22;55017;52.848;6.748;2022-10-16T00:23:16;13.00;99.90
57058;DHT22;55017;52.848;6.748;2022-10-16T00:25:42;13.00;99.90
57058;DHT22;55017;52.848;6.748;2022-10-16T00:28:07;12.90;99.90
57058;DHT22;55017;52.848;6.748;2022-10-16T00:30:33;12.90;99.90
57058;DHT22;55017;52.848;6.748;2022-10-16T00:32:58;12.90;99.90
57058;DHT22;55017;52.848;6.748;2022-10-16T00:35:24;13.00;99.90
57058;DHT22;55017;52.848;6.748;2022-10-16T00:37:50;12.90;99.90
57058;DHT22;55017;52.848;6.748;2022-10-16T00:40:16;12.90;99.90
57058;DHT22;55017;52.848;6.748;2022-10-16T00:42:41;12.90;99.90
57058;DHT22;55017;52.848;6.748;2022-10-16T00:45:08;13.00;99.90
57058;DHT22;55017;52.848;6.748;2022-10-16T00:47:43;12.80;99.90
57058;DHT22;55017;52.848;6.748;2022-10-16T00:52:55;12.80;99.90
57058;DHT22;55017;52.848;6.748;2022-10-16T00:55:21;12.80;99.90
57058;DHT22;55017;52.848;6.748;2022-10-16T00:57:48;12.80;99.90
57058;DHT22;55017;52.848;6.748;2022-10-16T01:00:18;12.70;99.90
57058;DHT22;55017;52.848;6.748;2022-10-16T01:02:59;12.80;99.90
57058;DHT22;55017;52.848;6.748;2022-10-16T01:05:35;12.70;99.90
57058;DHT22;55017;52.848;6.748;2022-10-16T01:08:11;12.70;99.90
57058;DHT22;55017;52.848;6.748;2022-10-16T01:10:51;12.70;99.90
57058;DHT22;55017;52.848;6.748;2022-10-16T01:13:25;12.70;99.90
57058;DHT22;55017;52.848;6.748;2022-10-16T01:16:17;12.70;99.90
57058;DHT22;55017;52.848;6.748;2022-10-16T01:19:13;12.60;99.90
57058;DHT22;55017;52.848;6.748;2022-10-16T01:21:44;12.60;99.90
57058;DHT22;55017;52.848;6.748;2022-10-16T01:24:40;12.60;99.90
57058;DHT22;55017;52.848;6.748;2022-10-16T01:30:02;12.60;99.90
57058;DHT22;55017;52.848;6.748;2022-10-16T01:32:40;12.60;99.90
57058;DHT22;55017;52.848;6.748;2022-10-16T01:37:51;12.60;99.90
57058;DHT22;55017;52.848;6.748;2022-10-16T01:40:19;12.60;99.90
57058;DHT22;55017;52.848;6.748;2022-10-16T01:42:52;12.50;99.90
57058;DHT22;55017;52.848;6.748;2022-10-16T01:45:19;12.50;99.90
57058;DHT22;55017;52.848;6.748;2022-10-16T01:47:48;12.50;99.90
57058;DHT22;55017;52.848;6.748;2022-10-16T01:50:16;12.60;99.90
57058;DHT22;55017;52.848;6.748;2022-10-16T01:52:46;12.60;99.90
57058;DHT22;55017;52.848;6.748;2022-10-16T01:55:20;12.60;99.90
57058;DHT22;55017;52.848;6.748;2022-10-16T01:57:49;12.60;99.90
57058;DHT22;55017;52.848;6.748;2022-10-16T02:00:16;12.60;99.90
57058;DHT22;55017;52.848;6.748;2022-10-16T02:02:45;12.50;99.90
57058;DHT22;55017;52.848;6.748;2022-10-16T02:05:31;12.60;99.90
57058;DHT22;55017;52.848;6.748;2022-10-16T02:07:57;12.70;99.90
57058;DHT22;55017;52.848;6.748;2022-10-16T02:10:24;12.60;99.90
57058;DHT22;55017;52.848;6.748;2022-10-16T02:13:23;12.70;99.90
57058;DHT22;55017;52.848;6.748;2022-10-16T02:15:51;12.70;99.90
57058;DHT22;55017;52.848;6.748;2022-10-16T02:18:16;12.80;99.90
57058;DHT22;55017;52.848;6.748;2022-10-16T02:20:52;12.70;99.90
57058;DHT22;55017;52.848;6.748;2022-10-16T02:23:27;12.80;99.90
57058;DHT22;55017;52.848;6.748;2022-10-16T02:25:56;12.70;99.90
57058;DHT22;55017;52.848;6.748;2022-10-16T02:28:27;12.70;99.90
57058;DHT22;55017;52.848;6.748;2022-10-16T02:31:00;12.70;99.90
57058;DHT22;55017;52.848;6.748;2022-10-16T02:33:28;12.80;99.90
57058;DHT22;55017;52.848;6.748;2022-10-16T02:35:55;12.80;99.90
57058;DHT22;55017;52.848;6.748;2022-10-16T02:38:22;12.80;99.90
57058;DHT22;55017;52.848;6.748;2022-10-16T02:40:49;12.80;99.90
57058;DHT22;55017;52.848;6.748;2022-10-16T02:43:15;12.80;99.90
57058;DHT22;55017;52.848;6.748;2022-10-16T02:45:41;12.90;99.90
57058;DHT22;55017;52.848;6.748;2022-10-16T02:48:06;12.80;99.90
57058;DHT22;55017;52.848;6.748;2022-10-16T02:50:32;12.80;99.90
57058;DHT22;55017;52.848;6.748;2022-10-16T02:52:58;12.80;99.90
57058;DHT22;55017;52.848;6.748;2022-10-16T02:55:23;12.80;99.90
57058;DHT22;55017;52.848;6.748;2022-10-16T02:57:49;12.90;99.90
57058;DHT22;55017;52.848;6.748;2022-10-16T03:00:16;12.80;99.90
57058;DHT22;55017;52.848;6.748;2022-10-16T03:02:42;12.90;99.90
57058;DHT22;55017;52.848;6.748;2022-10-16T03:05:09;12.90;99.90
57058;DHT22;55017;52.848;6.748;2022-10-16T03:07:35;12.90;99.90
57058;DHT22;55017;52.848;6.748;2022-10-16T03:10:00;12.90;99.90
57058;DHT22;55017;52.848;6.748;2022-10-16T03:12:27;12.90;99.90
57058;DHT22;55017;52.848;6.748;2022-10-16T03:14:53;13.00;99.90
57058;DHT22;55017;52.848;6.748;2022-10-16T03:17:19;12.90;99.90
57058;DHT22;55017;52.848;6.748;2022-10-16T03:19:45;13.00;99.90
57058;DHT22;55017;52.848;6.748;2022-10-16T03:22:10;13.00;99.90
57058;DHT22;55017;52.848;6.748;2022-10-16T03:24:36;13.10;99.90
57058;DHT22;55017;52.848;6.748;2022-10-16T03:27:01;13.00;99.90
57058;DHT22;55017;52.848;6.748;2022-10-16T03:29:27;13.00;99.90
57058;DHT22;55017;52.848;6.748;2022-10-16T03:31:55;13.10;99.90
57058;DHT22;55017;52.848;6.748;2022-10-16T03:34:20;13.00;99.90
57058;DHT22;55017;52.848;6.748;2022-10-16T03:36:46;13.10;99.90
57058;DHT22;55017;52.848;6.748;2022-10-16T03:39:11;13.00;99.90
57058;DHT22;55017;52.848;6.748;2022-10-16T03:41:37;13.00;99.90
57058;DHT22;55017;52.848;6.748;2022-10-16T03:44:02;13.20;99.90
57058;DHT22;55017;52.848;6.748;2022-10-16T03:46:28;13.20;99.90
57058;DHT22;55017;52.848;6.748;2022-10-16T03:48:54;13.20;99.90
57058;DHT22;55017;52.848;6.748;2022-10-16T03:51:20;13.10;99.90
57058;DHT22;55017;52.848;6.748;2022-10-16T03:53:46;13.20;99.90
57058;DHT22;55017;52.848;6.748;2022-10-16T03:56:11;13.10;99.90
57058;DHT22;55017;52.848;6.748;2022-10-16T03:58:37;13.20;99.90
57058;DHT22;55017;52.848;6.748;2022-10-16T04:01:03;13.20;99.90
57058;DHT22;55017;52.848;6.748;2022-10-16T04:03:28;13.20;99.90
57058;DHT22;55017;52.848;6.748;2022-10-16T04:05:54;13.10;99.90
57058;DHT22;55017;52.848;6.748;2022-10-16T04:08:20;13.10;99.90
57058;DHT22;55017;52.848;6.748;2022-10-16T04:10:46;13.10;99.90
57058;DHT22;55017;52.848;6.748;2022-10-16T04:13:12;13.10;99.90
57058;DHT22;55017;52.848;6.748;2022-10-16T04:15:38;13.10;99.90
57058;DHT22;55017;52.848;6.748;2022-10-16T04:18:04;13.10;99.90
57058;DHT22;55017;52.848;6.748;2022-10-16T04:20:30;13.00;99.90
57058;DHT22;55017;52.848;6.748;2022-10-16T04:22:56;13.00;99.90
57058;DHT22;55017;52.848;6.748;2022-10-16T04:25:21;13.00;99.90
57058;DHT22;55017;52.848;6.748;2022-10-16T04:27:47;13.00;99.90
57058;DHT22;55017;52.848;6.748;2022-10-16T04:30:13;13.00;99.90
57058;DHT22;55017;52.848;6.748;2022-10-16T04:32:39;12.90;99.90
57058;DHT22;55017;52.848;6.748;2022-10-16T04:35:06;12.90;99.90
57058;DHT22;55017;52.848;6.748;2022-10-16T04:37:32;12.90;99.90
57058;DHT22;55017;52.848;6.748;2022-10-16T04:39:57;12.90;99.90
57058;DHT22;55017;52.848;6.748;2022-10-16T04:42:23;12.90;99.90
57058;DHT22;55017;52.848;6.748;2022-10-16T04:44:49;12.90;99.90
57058;DHT22;55017;52.848;6.748;2022-10-16T04:47:15;12.90;99.90
57058;DHT22;55017;52.848;6.748;2022-10-16T04:49:40;12.90;99.90
57058;DHT22;55017;52.848;6.748;2022-10-16T04:52:06;12.90;99.90
57058;DHT22;55017;52.848;6.748;2022-10-16T04:54:32;12.90;99.90
57058;DHT22;55017;52.848;6.748;2022-10-16T04:56:57;12.90;99.90
57058;DHT22;55017;52.848;6.748;2022-10-16T04:59:23;12.90;99.90
57058;DHT22;55017;52.848;6.748;2022-10-16T05:01:49;12.90;99.90
57058;DHT22;55017;52.848;6.748;2022-10-16T05:04:15;12.90;99.90
57058;DHT22;55017;52.848;6.748;2022-10-16T05:06:41;13.00;99.90
57058;DHT22;55017;52.848;6.748;2022-10-16T05:09:07;13.10;99.90
57058;DHT22;55017;52.848;6.748;2022-10-16T05:11:33;12.90;99.90
57058;DHT22;55017;52.848;6.748;2022-10-16T05:13:59;13.00;99.90
57058;DHT22;55017;52.848;6.748;2022-10-16T05:16:25;13.00;99.90
57058;DHT22;55017;52.848;6.748;2022-10-16T05:18:51;12.90;99.90
57058;DHT22;55017;52.848;6.748;2022-10-16T05:21:17;13.00;99.90
57058;DHT22;55017;52.848;6.748;2022-10-16T05:23:42;13.00;99.90
57058;DHT22;55017;52.848;6.748;2022-10-16T05:26:08;12.90;99.90
57058;DHT22;55017;52.848;6.748;2022-10-16T05:28:34;12.90;99.90
57058;DHT22;55017;52.848;6.748;2022-10-16T05:31:07;12.90;99.90
57058;DHT22;55017;52.848;6.748;2022-10-16T05:33:33;13.00;99.90
57058;DHT22;55017;52.848;6.748;2022-10-16T05:36:07;12.90;99.90
57058;DHT22;55017;52.848;6.748;2022-10-16T05:38:34;13.00;99.90
57058;DHT22;55017;52.848;6.748;2022-10-16T05:40:59;12.90;99.90
57058;DHT22;55017;52.848;6.748;2022-10-16T05:43:27;12.80;99.90
57058;DHT22;55017;52.848;6.748;2022-10-16T05:45:57;12.90;99.90
57058;DHT22;55017;52.848;6.748;2022-10-16T05:48:24;12.90;99.90
57058;DHT22;55017;52.848;6.748;2022-10-16T05:51:00;12.90;99.90
57058;DHT22;55017;52.848;6.748;2022-10-16T05:53:27;12.80;99.90
57058;DHT22;55017;52.848;6.748;2022-10-16T05:55:55;12.90;99.90
57058;DHT22;55017;52.848;6.748;2022-10-16T05:58:21;12.90;99.90
57058;DHT22;55017;52.848;6.748;2022-10-16T06:00:58;12.80;99.90
57058;DHT22;55017;52.848;6.748;2022-10-16T06:03:23;12.80;99.90
57058;DHT22;55017;52.848;6.748;2022-10-16T06:05:50;12.80;99.90
57058;DHT22;55017;52.848;6.748;2022-10-16T06:08:16;12.90;99.90
57058;DHT22;55017;52.848;6.748;2022-10-16T06:10:42;12.80;99.90
57058;DHT22;55017;52.848;6.748;2022-10-16T06:13:09;12.90;99.90
57058;DHT22;55017;52.848;6.748;2022-10-16T06:15:35;12.80;99.90
57058;DHT22;55017;52.848;6.748;2022-10-16T06:18:00;12.80;99.90
57058;DHT22;55017;52.848;6.748;2022-10-16T06:20:26;12.90;99.90
57058;DHT22;55017;52.848;6.748;2022-10-16T06:22:51;12.90;99.90
57058;DHT22;55017;52.848;6.748;2022-10-16T06:25:17;12.80;99.90
57058;DHT22;55017;52.848;6.748;2022-10-16T06:27:43;12.90;99.90
57058;DHT22;55017;52.848;6.748;2022-10-16T06:30:09;13.00;99.90
57058;DHT22;55017;52.848;6.748;2022-10-16T06:32:34;12.90;99.90
57058;DHT22;55017;52.848;6.748;2022-10-16T06:35:00;12.90;99.90
57058;DHT22;55017;52.848;6.748;2022-10-16T06:37:27;12.90;99.90
57058;DHT22;55017;52.848;6.748;2022-10-16T06:39:52;12.90;99.90
57058;DHT22;55017;52.848;6.748;2022-10-16T06:42:18;13.00;99.90
57058;DHT22;55017;52.848;6.748;2022-10-16T06:44:44;12.90;99.90
57058;DHT22;55017;52.848;6.748;2022-10-16T06:47:10;13.00;99.90
57058;DHT22;55017;52.848;6.748;2022-10-16T06:49:35;13.00;99.90
57058;DHT22;55017;52.848;6.748;2022-10-16T06:52:01;13.00;99.90
57058;DHT22;55017;52.848;6.748;2022-10-16T06:54:28;13.10;99.90
57058;DHT22;55017;52.848;6.748;2022-10-16T06:56:54;13.10;99.90
57058;DHT22;55017;52.848;6.748;2022-10-16T06:59:21;13.10;99.90
57058;DHT22;55017;52.848;6.748;2022-10-16T07:01:46;13.10;99.90
57058;DHT22;55017;52.848;6.748;2022-10-16T07:04:12;13.10;99.90
57058;DHT22;55017;52.848;6.748;2022-10-16T07:06:38;13.20;99.90
57058;DHT22;55017;52.848;6.748;2022-10-16T07:09:06;13.20;99.90
57058;DHT22;55017;52.848;6.748;2022-10-16T07:11:33;13.20;99.90
57058;DHT22;55017;52.848;6.748;2022-10-16T07:13:59;13.20;99.90
57058;DHT22;55017;52.848;6.748;2022-10-16T07:16:27;13.30;99.90
57058;DHT22;55017;52.848;6.748;2022-10-16T07:18:58;13.20;99.90
57058;DHT22;55017;52.848;6.748;2022-10-16T07:21:25;13.20;99.90
57058;DHT22;55017;52.848;6.748;2022-10-16T07:23:52;13.30;99.90
57058;DHT22;55017;52.848;6.748;2022-10-16T07:26:18;13.30;99.90
57058;DHT22;55017;52.848;6.748;2022-10-16T07:28:44;13.40;99.90
57058;DHT22;55017;52.848;6.748;2022-10-16T07:31:12;13.30;99.90
57058;DHT22;55017;52.848;6.748;2022-10-16T07:33:40;13.50;99.90
57058;DHT22;55017;52.848;6.748;2022-10-16T07:36:07;13.40;99.90
57058;DHT22;55017;52.848;6.748;2022-10-16T07:38:33;13.50;99.90
57058;DHT22;55017;52.848;6.748;2022-10-16T07:41:00;13.60;99.90
57058;DHT22;55017;52.848;6.748;2022-10-16T07:43:26;13.60;99.90
57058;DHT22;55017;52.848;6.748;2022-10-16T07:45:52;13.60;99.90
57058;DHT22;55017;52.848;6.748;2022-10-16T07:48:18;13.70;99.90
57058;DHT22;55017;52.848;6.748;2022-10-16T07:50:44;13.60;99.90
57058;DHT22;55017;52.848;6.748;2022-10-16T07:53:10;13.70;99.90
57058;DHT22;55017;52.848;6.748;2022-10-16T07:55:36;13.70;99.90
57058;DHT22;55017;52.848;6.748;2022-10-16T07:58:02;13.70;99.90
57058;DHT22;55017;52.848;6.748;2022-10-16T08:00:28;13.70;99.90
57058;DHT22;55017;52.848;6.748;2022-10-16T08:02:53;13.70;99.90
57058;DHT22;55017;52.848;6.748;2022-10-16T08:05:19;13.70;99.90
57058;DHT22;55017;52.848;6.748;2022-10-16T08:07:49;13.80;99.90
57058;DHT22;55017;52.848;6.748;2022-10-16T08:10:17;13.80;99.90
57058;DHT22;55017;52.848;6.748;2022-10-16T08:12:43;13.80;99.90
57058;DHT22;55017;52.848;6.748;2022-10-16T08:15:09;13.80;99.90
57058;DHT22;55017;52.848;6.748;2022-10-16T08:17:35;13.90;99.90
57058;DHT22;55017;52.848;6.748;2022-10-16T08:20:00;14.00;99.90
57058;DHT22;55017;52.848;6.748;2022-10-16T08:22:27;14.10;99.90
57058;DHT22;55017;52.848;6.748;2022-10-16T08:24:52;14.30;99.90
57058;DHT22;55017;52.848;6.748;2022-10-16T08:27:18;14.60;99.90
57058;DHT22;55017;52.848;6.748;2022-10-16T08:29:43;14.40;99.90
57058;DHT22;55017;52.848;6.748;2022-10-16T08:32:09;14.40;99.90
57058;DHT22;55017;52.848;6.748;2022-10-16T08:34:35;14.50;99.90
57058;DHT22;55017;52.848;6.748;2022-10-16T08:37:00;14.50;99.90
57058;DHT22;55017;52.848;6.748;2022-10-16T08:39:26;14.50;99.90
57058;DHT22;55017;52.848;6.748;2022-10-16T08:44:52;14.60;99.90
57058;DHT22;55017;52.848;6.748;2022-10-16T08:50:25;14.80;99.90
57058;DHT22;55017;52.848;6.748;2022-10-16T08:52:53;14.90;99.90
57058;DHT22;55017;52.848;6.748;2022-10-16T08:55:45;14.90;99.90
57058;DHT22;55017;52.848;6.748;2022-10-16T08:58:20;15.00;99.90
57058;DHT22;55017;52.848;6.748;2022-10-16T09:00:58;15.00;99.90
57058;DHT22;55017;52.848;6.748;2022-10-16T09:06:50;15.30;99.90
57058;DHT22;55017;52.848;6.748;2022-10-16T09:09:39;15.60;99.90
57058;DHT22;55017;52.848;6.748;2022-10-16T09:20:51;16.30;99.90
57058;DHT22;55017;52.848;6.748;2022-10-16T09:23:34;16.50;99.90
57058;DHT22;55017;52.848;6.748;2022-10-16T09:26:01;16.60;99.90
57058;DHT22;55017;52.848;6.748;2022-10-16T09:28:27;16.90;99.90
57058;DHT22;55017;52.848;6.748;2022-10-16T09:30:53;17.00;99.90
57058;DHT22;55017;52.848;6.748;2022-10-16T09:33:23;17.10;99.90
57058;DHT22;55017;52.848;6.748;2022-10-16T09:35:52;17.20;99.90
57058;DHT22;55017;52.848;6.748;2022-10-16T09:38:22;17.40;99.90
57058;DHT22;55017;52.848;6.748;2022-10-16T09:40:48;17.30;99.90
57058;DHT22;55017;52.848;6.748;2022-10-16T09:46:04;17.60;99.90
57058;DHT22;55017;52.848;6.748;2022-10-16T09:48:44;17.80;99.90
57058;DHT22;55017;52.848;6.748;2022-10-16T09:51:22;17.90;99.90
57058;DHT22;55017;52.848;6.748;2022-10-16T09:53:49;17.90;99.90
57058;DHT22;55017;52.848;6.748;2022-10-16T09:56:31;18.10;99.90
57058;DHT22;55017;52.848;6.748;2022-10-16T09:59:00;18.30;99.90
57058;DHT22;55017;52.848;6.748;2022-10-16T10:01:37;18.30;99.90
57058;DHT22;55017;52.848;6.748;2022-10-16T10:04:04;18.40;99.90
57058;DHT22;55017;52.848;6.748;2022-10-16T10:07:14;18.40;99.90
57058;DHT22;55017;52.848;6.748;2022-10-16T10:09:29;18.40;99.90
57058;DHT22;55017;52.848;6.748;2022-10-16T10:11:59;18.50;99.90
57058;DHT22;55017;52.848;6.748;2022-10-16T10:17:17;18.60;99.90
57058;DHT22;55017;52.848;6.748;2022-10-16T10:20:37;18.40;99.90
57058;DHT22;55017;52.848;6.748;2022-10-16T10:22:45;18.50;99.90
57058;DHT22;55017;52.848;6.748;2022-10-16T10:28:42;18.70;99.90
57058;DHT22;55017;52.848;6.748;2022-10-16T10:36:40;18.70;99.90
57058;DHT22;55017;52.848;6.748;2022-10-16T10:41:59;18.60;99.90
57058;DHT22;55017;52.848;6.748;2022-10-16T10:52:39;19.00;99.90
57058;DHT22;55017;52.848;6.748;2022-10-16T10:57:53;19.00;99.90
57058;DHT22;55017;52.848;6.748;2022-10-16T11:06:15;19.50;99.00
57058;DHT22;55017;52.848;6.748;2022-10-16T11:08:59;19.50;99.90
57058;DHT22;55017;52.848;6.748;2022-10-16T11:14:34;19.70;97.70
57058;DHT22;55017;52.848;6.748;2022-10-16T11:17:07;19.70;95.10
57058;DHT22;55017;52.848;6.748;2022-10-16T11:19:38;19.50;96.70
57058;DHT22;55017;52.848;6.748;2022-10-16T11:22:16;19.10;95.70
57058;DHT22;55017;52.848;6.748;2022-10-16T11:24:55;19.00;95.40
57058;DHT22;55017;52.848;6.748;2022-10-16T11:27:38;18.70;96.40
57058;DHT22;55017;52.848;6.748;2022-10-16T11:30:14;18.50;98.40
57058;DHT22;55017;52.848;6.748;2022-10-16T11:36:15;18.00;97.90
57058;DHT22;55017;52.848;6.748;2022-10-16T11:39:08;17.90;98.20
57058;DHT22;55017;52.848;6.748;2022-10-16T11:47:30;19.80;97.80
57058;DHT22;55017;52.848;6.748;2022-10-16T11:50:02;21.10;96.30
57058;DHT22;55017;52.848;6.748;2022-10-16T11:52:40;21.90;91.90
57058;DHT22;55017;52.848;6.748;2022-10-16T11:55:18;21.90;86.50
57058;DHT22;55017;52.848;6.748;2022-10-16T11:57:58;22.20;85.10
57058;DHT22;55017;52.848;6.748;2022-10-16T12:00:40;22.00;81.30
57058;DHT22;55017;52.848;6.748;2022-10-16T12:03:30;21.80;82.30
57058;DHT22;55017;52.848;6.748;2022-10-16T12:06:17;23.40;78.00
57058;DHT22;55017;52.848;6.748;2022-10-16T12:08:49;26.00;67.20
57058;DHT22;55017;52.848;6.748;2022-10-16T12:11:35;27.40;63.50
57058;DHT22;55017;52.848;6.748;2022-10-16T12:16:55;27.70;56.50
57058;DHT22;55017;52.848;6.748;2022-10-16T12:19:22;26.80;55.40
57058;DHT22;55017;52.848;6.748;2022-10-16T12:21:49;25.80;57.30
57058;DHT22;55017;52.848;6.748;2022-10-16T12:24:38;24.50;59.10
57058;DHT22;55017;52.848;6.748;2022-10-16T12:27:06;23.40;61.80
57058;DHT22;55017;52.848;6.748;2022-10-16T12:29:42;22.10;65.20
57058;DHT22;55017;52.848;6.748;2022-10-16T12:32:34;21.40;69.20
57058;DHT22;55017;52.848;6.748;2022-10-16T12:35:02;20.80;71.20
57058;DHT22;55017;52.848;6.748;2022-10-16T12:37:33;20.40;75.60
57058;DHT22;55017;52.848;6.748;2022-10-16T12:39:59;20.30;78.50
57058;DHT22;55017;52.848;6.748;2022-10-16T12:42:36;20.40;80.60
57058;DHT22;55017;52.848;6.748;2022-10-16T12:47:52;20.50;83.30
57058;DHT22;55017;52.848;6.748;2022-10-16T12:50:37;20.40;83.40
57058;DHT22;55017;52.848;6.748;2022-10-16T12:53:26;20.40;82.00
57058;DHT22;55017;52.848;6.748;2022-10-16T12:56:04;20.40;83.00
57058;DHT22;55017;52.848;6.748;2022-10-16T12:58:49;20.30;81.50
57058;DHT22;55017;52.848;6.748;2022-10-16T13:20:10;19.40;88.30
57058;DHT22;55017;52.848;6.748;2022-10-16T13:23:00;19.70;87.50
57058;DHT22;55017;52.848;6.748;2022-10-16T13:28:13;19.70;85.30
57058;DHT22;55017;52.848;6.748;2022-10-16T13:30:43;19.50;84.80
57058;DHT22;55017;52.848;6.748;2022-10-16T13:33:14;19.40;85.60
57058;DHT22;55017;52.848;6.748;2022-10-16T13:35:52;19.20;87.60
57058;DHT22;55017;52.848;6.748;2022-10-16T13:38:21;19.10;88.90
57058;DHT22;55017;52.848;6.748;2022-10-16T13:40:58;19.00;90.90
57058;DHT22;55017;52.848;6.748;2022-10-16T13:46:03;18.60;94.20
57058;DHT22;55017;52.848;6.748;2022-10-16T13:48:30;18.50;94.60
57058;DHT22;55017;52.848;6.748;2022-10-16T13:51:01;18.30;96.50
57058;DHT22;55017;52.848;6.748;2022-10-16T13:53:27;18.20;98.50
57058;DHT22;55017;52.848;6.748;2022-10-16T13:55:55;18.00;98.70
57058;DHT22;55017;52.848;6.748;2022-10-16T13:58:21;18.00;99.70
57058;DHT22;55017;52.848;6.748;2022-10-16T14:00:59;17.80;99.90
57058;DHT22;55017;52.848;6.748;2022-10-16T14:03:26;17.90;99.90
57058;DHT22;55017;52.848;6.748;2022-10-16T14:06:03;18.00;99.90
57058;DHT22;55017;52.848;6.748;2022-10-16T14:08:31;18.00;99.90
57058;DHT22;55017;52.848;6.748;2022-10-16T14:10:59;18.00;99.90
57058;DHT22;55017;52.848;6.748;2022-10-16T14:13:46;18.10;99.90
57058;DHT22;55017;52.848;6.748;2022-10-16T14:16:30;17.90;99.40
57058;DHT22;55017;52.848;6.748;2022-10-16T14:18:57;17.80;98.00
57058;DHT22;55017;52.848;6.748;2022-10-16T14:21:23;17.70;99.30
57058;DHT22;55017;52.848;6.748;2022-10-16T14:23:49;17.70;99.10
57058;DHT22;55017;52.848;6.748;2022-10-16T14:26:19;17.70;99.60
57058;DHT22;55017;52.848;6.748;2022-10-16T14:28:46;17.60;99.90
57058;DHT22;55017;52.848;6.748;2022-10-16T14:31:25;17.60;97.70
57058;DHT22;55017;52.848;6.748;2022-10-16T14:33:51;17.50;98.10
57058;DHT22;55017;52.848;6.748;2022-10-16T14:36:17;17.40;97.30
57058;DHT22;55017;52.848;6.748;2022-10-16T14:39:00;17.30;96.80
57058;DHT22;55017;52.848;6.748;2022-10-16T14:41:28;17.30;99.00
57058;DHT22;55017;52.848;6.748;2022-10-16T14:44:04;17.30;98.80
57058;DHT22;55017;52.848;6.748;2022-10-16T14:46:36;17.20;99.90
57058;DHT22;55017;52.848;6.748;2022-10-16T14:51:34;17.10;99.90
57058;DHT22;55017;52.848;6.748;2022-10-16T14:54:00;17.10;99.90
57058;DHT22;55017;52.848;6.748;2022-10-16T14:56:51;17.10;99.90
57058;DHT22;55017;52.848;6.748;2022-10-16T14:59:25;17.00;99.90
57058;DHT22;55017;52.848;6.748;2022-10-16T15:01:52;16.90;99.90
57058;DHT22;55017;52.848;6.748;2022-10-16T15:04:18;16.90;99.90
57058;DHT22;55017;52.848;6.748;2022-10-16T15:06:44;16.90;99.90
57058;DHT22;55017;52.848;6.748;2022-10-16T15:09:09;16.80;99.90
57058;DHT22;55017;52.848;6.748;2022-10-16T15:11:35;16.70;99.90
57058;DHT22;55017;52.848;6.748;2022-10-16T15:14:01;16.60;99.90
57058;DHT22;55017;52.848;6.748;2022-10-16T15:16:29;16.60;99.90
57058;DHT22;55017;52.848;6.748;2022-10-16T15:18:55;16.50;99.90
57058;DHT22;55017;52.848;6.748;2022-10-16T15:21:27;16.50;99.90
57058;DHT22;55017;52.848;6.748;2022-10-16T15:23:53;16.40;99.90
57058;DHT22;55017;52.848;6.748;2022-10-16T15:26:19;16.20;99.90
57058;DHT22;55017;52.848;6.748;2022-10-16T15:28:45;16.20;99.90
57058;DHT22;55017;52.848;6.748;2022-10-16T15:31:10;16.10;99.90
57058;DHT22;55017;52.848;6.748;2022-10-16T15:33:36;16.00;99.90
57058;DHT22;55017;52.848;6.748;2022-10-16T15:36:02;15.90;99.90
57058;DHT22;55017;52.848;6.748;2022-10-16T15:38:29;15.90;99.90
57058;DHT22;55017;52.848;6.748;2022-10-16T15:40:55;15.80;99.90
57058;DHT22;55017;52.848;6.748;2022-10-16T15:43:21;15.70;99.90
57058;DHT22;55017;52.848;6.748;2022-10-16T15:46:08;15.70;99.90
57058;DHT22;55017;52.848;6.748;2022-10-16T15:48:35;15.60;99.90
57058;DHT22;55017;52.848;6.748;2022-10-16T15:51:05;15.40;99.90
57058;DHT22;55017;52.848;6.748;2022-10-16T15:53:31;15.40;99.90
57058;DHT22;55017;52.848;6.748;2022-10-16T15:55:57;15.40;99.90
57058;DHT22;55017;52.848;6.748;2022-10-16T15:58:22;15.40;99.90
57058;DHT22;55017;52.848;6.748;2022-10-16T16:00:58;15.40;99.90
57058;DHT22;55017;52.848;6.748;2022-10-16T16:03:26;15.30;99.90
57058;DHT22;55017;52.848;6.748;2022-10-16T16:05:52;15.20;99.90
57058;DHT22;55017;52.848;6.748;2022-10-16T16:08:18;15.10;99.90
57058;DHT22;55017;52.848;6.748;2022-10-16T16:10:43;15.10;99.90
57058;DHT22;55017;52.848;6.748;2022-10-16T16:13:09;15.10;99.90
57058;DHT22;55017;52.848;6.748;2022-10-16T16:15:38;15.10;99.90
57058;DHT22;55017;52.848;6.748;2022-10-16T16:18:04;14.90;99.90
57058;DHT22;55017;52.848;6.748;2022-10-16T16:20:31;14.70;99.90
57058;DHT22;55017;52.848;6.748;2022-10-16T16:22:57;14.70;99.90
57058;DHT22;55017;52.848;6.748;2022-10-16T16:25:23;14.60;99.90
57058;DHT22;55017;52.848;6.748;2022-10-16T16:27:48;14.60;99.90
57058;DHT22;55017;52.848;6.748;2022-10-16T16:30:14;14.50;99.90
57058;DHT22;55017;52.848;6.748;2022-10-16T16:32:40;14.30;99.90
57058;DHT22;55017;52.848;6.748;2022-10-16T16:35:06;14.30;99.90
57058;DHT22;55017;52.848;6.748;2022-10-16T16:37:31;14.30;99.90
57058;DHT22;55017;52.848;6.748;2022-10-16T16:39:57;14.20;99.90
57058;DHT22;55017;52.848;6.748;2022-10-16T16:42:26;14.20;99.90
57058;DHT22;55017;52.848;6.748;2022-10-16T16:44:52;14.10;99.90
57058;DHT22;55017;52.848;6.748;2022-10-16T16:47:18;14.10;99.90
57058;DHT22;55017;52.848;6.748;2022-10-16T16:49:44;14.10;99.90
57058;DHT22;55017;52.848;6.748;2022-10-16T16:52:12;14.10;99.90
57058;DHT22;55017;52.848;6.748;2022-10-16T16:54:38;14.10;99.90
57058;DHT22;55017;52.848;6.748;2022-10-16T16:57:04;14.10;99.90
57058;DHT22;55017;52.848;6.748;2022-10-16T16:59:30;14.00;99.90
57058;DHT22;55017;52.848;6.748;2022-10-16T17:02:01;13.90;99.90
57058;DHT22;55017;52.848;6.748;2022-10-16T17:04:27;13.90;99.90
57058;DHT22;55017;52.848;6.748;2022-10-16T17:06:55;13.90;99.90
57058;DHT22;55017;52.848;6.748;2022-10-16T17:09:21;13.80;99.90
57058;DHT22;55017;52.848;6.748;2022-10-16T17:11:47;13.70;99.90
57058;DHT22;55017;52.848;6.748;2022-10-16T17:14:14;13.60;99.90
57058;DHT22;55017;52.848;6.748;2022-10-16T17:16:40;13.60;99.90
57058;DHT22;55017;52.848;6.748;2022-10-16T17:19:15;13.60;99.90
57058;DHT22;55017;52.848;6.748;2022-10-16T17:21:40;13.60;99.90
57058;DHT22;55017;52.848;6.748;2022-10-16T17:24:06;13.60;99.90
57058;DHT22;55017;52.848;6.748;2022-10-16T17:26:33;13.50;99.90
57058;DHT22;55017;52.848;6.748;2022-10-16T17:29:03;13.50;99.90